Abrela — EAVW — position and weather

sailwx.info

Track history (hours):
 
Tides and Currents Weather Stations Pressure Air Temp Water Temp Dewpoint Dewpoint Depression Visibility Wind Speed Wind Dir Waves Ship Positions

Abrela

Last reported at 2016-Jun-26 13:33 UTC. Time now 2016-Jun-26 13:48 UTC.
Position N 43°41' W 007°36'.

Length 30 m; draft 3 m.

Type: Fishing. MMSI: 224204490.

Date/timePositionNaut miles runAvg speedWind from/ knotsBaromVisibWave heightAir tempDewpointWater temp
2016-Jun-26 13:33N 43°41' W 007°36'0 0.0
2016-Jun-26 12:32N 43°41' W 007°36'0 0.0
2016-Jun-26 11:33N 43°41' W 007°36'0 0.0
2016-Jun-26 10:32N 43°41' W 007°36'0 0.0
2016-Jun-26 09:33N 43°41' W 007°36'0 0.0
2016-Jun-26 08:33N 43°41' W 007°36'0 0.0
2016-Jun-26 07:33N 43°41' W 007°36'0 0.0
2016-Jun-26 06:33N 43°41' W 007°36'0 0.0
2016-Jun-26 05:33N 43°41' W 007°36'0 0.0
2016-Jun-26 04:32N 43°41' W 007°36'0 0.0
2016-Jun-26 03:33N 43°41' W 007°36'0 0.0
2016-Jun-26 02:32N 43°41' W 007°36'0 0.0
2016-Jun-26 01:33N 43°41' W 007°36'0 0.0
2016-Jun-26 00:31N 43°41' W 007°36'0 0.0
2016-Jun-25 23:33N 43°41' W 007°36'0 0.0
2016-Jun-25 22:33N 43°41' W 007°36'0 0.0
2016-Jun-25 21:33N 43°41' W 007°36'0 0.0
2016-Jun-25 20:33N 43°41' W 007°36'0 0.0
2016-Jun-25 19:33N 43°41' W 007°36'0 0.0
2016-Jun-25 18:33N 43°41' W 007°36'0 0.0
2016-Jun-25 17:33N 43°41' W 007°36'0 0.0
2016-Jun-25 16:33N 43°41' W 007°36'0 0.0
2016-Jun-25 15:33N 43°41' W 007°36'0 0.0
2016-Jun-25 14:33N 43°41' W 007°36'0 0.0
2016-Jun-25 13:33N 43°41' W 007°36'0 0.0
2016-Jun-25 12:33N 43°41' W 007°36'0 0.0
2016-Jun-25 11:33N 43°41' W 007°36'0 0.0
2016-Jun-25 10:32N 43°41' W 007°36'0 0.0
2016-Jun-25 09:33N 43°41' W 007°36'0 0.0
2016-Jun-25 08:33N 43°41' W 007°36'0 0.0
2016-Jun-25 07:33N 43°41' W 007°36'0 0.0
2016-Jun-25 06:33N 43°41' W 007°36'0 0.0
2016-Jun-25 05:33N 43°41' W 007°36'0 0.0
2016-Jun-25 04:33N 43°41' W 007°36'0 0.0
2016-Jun-25 03:33N 43°41' W 007°36'0 0.0
2016-Jun-25 02:33N 43°41' W 007°36'0 0.0
2016-Jun-25 01:33N 43°41' W 007°36'0 0.0
2016-Jun-25 00:32N 43°41' W 007°36'0 0.0
2016-Jun-24 23:33N 43°41' W 007°36'0 0.0
2016-Jun-24 22:33N 43°41' W 007°36'0 0.0
2016-Jun-24 21:33N 43°41' W 007°36'0 0.0
2016-Jun-24 20:33N 43°41' W 007°36'0 0.0
2016-Jun-24 19:31N 43°41' W 007°36'0 0.0
2016-Jun-24 18:33N 43°41' W 007°36'0 0.1
2016-Jun-24 17:33N 43°41' W 007°36'0 0.0
2016-Jun-24 16:33N 43°41' W 007°36'7 6.5
2016-Jun-24 15:33N 43°47' W 007°39'9 9.1
2016-Jun-24 14:31N 43°49' W 007°51'7 0.2
2016-Jun-22 22:28N 43°50' W 007°41'9 9.8
2016-Jun-22 21:33N 43°41' W 007°36'1 0.6
2016-Jun-22 20:34N 43°41' W 007°36'0 0.0
2016-Jun-22 19:34N 43°41' W 007°36'0 0.0
2016-Jun-22 18:33N 43°41' W 007°36'0 0.0
2016-Jun-22 17:34N 43°41' W 007°36'0 0.1
2016-Jun-22 16:34N 43°41' W 007°36'3 3.5
2016-Jun-22 15:33N 43°44' W 007°35'1010.0
2016-Jun-22 14:32N 43°54' W 007°30'  
Track history (hours):
 
Tides and Currents Weather Stations Pressure Air Temp Water Temp Dewpoint Dewpoint Depression Visibility Wind Speed Wind Dir Waves Ship Positions

Abrela

Last reported at 2016-Jun-26 13:33 UTC. Time now 2016-Jun-26 13:48 UTC.
Position N 43°41' W 007°36'.

Length 30 m; draft 3 m.

Type: Fishing. MMSI: 224204490.

Date/timePositionNaut miles runAvg speedWind from/ knotsBaromVisibWave heightAir tempDewpointWater temp
2016-Jun-26 13:33N 43°41' W 007°36'0 0.0
2016-Jun-26 12:32N 43°41' W 007°36'0 0.0
2016-Jun-26 11:33N 43°41' W 007°36'0 0.0
2016-Jun-26 10:32N 43°41' W 007°36'0 0.0
2016-Jun-26 09:33N 43°41' W 007°36'0 0.0
2016-Jun-26 08:33N 43°41' W 007°36'0 0.0
2016-Jun-26 07:33N 43°41' W 007°36'0 0.0
2016-Jun-26 06:33N 43°41' W 007°36'0 0.0
2016-Jun-26 05:33N 43°41' W 007°36'0 0.0
2016-Jun-26 04:32N 43°41' W 007°36'0 0.0
2016-Jun-26 03:33N 43°41' W 007°36'0 0.0
2016-Jun-26 02:32N 43°41' W 007°36'0 0.0
2016-Jun-26 01:33N 43°41' W 007°36'0 0.0
2016-Jun-26 00:31N 43°41' W 007°36'0 0.0
2016-Jun-25 23:33N 43°41' W 007°36'0 0.0
2016-Jun-25 22:33N 43°41' W 007°36'0 0.0
2016-Jun-25 21:33N 43°41' W 007°36'0 0.0
2016-Jun-25 20:33N 43°41' W 007°36'0 0.0
2016-Jun-25 19:33N 43°41' W 007°36'0 0.0
2016-Jun-25 18:33N 43°41' W 007°36'0 0.0
2016-Jun-25 17:33N 43°41' W 007°36'0 0.0
2016-Jun-25 16:33N 43°41' W 007°36'0 0.0
2016-Jun-25 15:33N 43°41' W 007°36'0 0.0
2016-Jun-25 14:33N 43°41' W 007°36'0 0.0
2016-Jun-25 13:33N 43°41' W 007°36'0 0.0
2016-Jun-25 12:33N 43°41' W 007°36'0 0.0
2016-Jun-25 11:33N 43°41' W 007°36'0 0.0
2016-Jun-25 10:32N 43°41' W 007°36'0 0.0
2016-Jun-25 09:33N 43°41' W 007°36'0 0.0
2016-Jun-25 08:33N 43°41' W 007°36'0 0.0
2016-Jun-25 07:33N 43°41' W 007°36'0 0.0
2016-Jun-25 06:33N 43°41' W 007°36'0 0.0
2016-Jun-25 05:33N 43°41' W 007°36'0 0.0
2016-Jun-25 04:33N 43°41' W 007°36'0 0.0
2016-Jun-25 03:33N 43°41' W 007°36'0 0.0
2016-Jun-25 02:33N 43°41' W 007°36'0 0.0
2016-Jun-25 01:33N 43°41' W 007°36'0 0.0
2016-Jun-25 00:32N 43°41' W 007°36'0 0.0
2016-Jun-24 23:33N 43°41' W 007°36'0 0.0
2016-Jun-24 22:33N 43°41' W 007°36'0 0.0
2016-Jun-24 21:33N 43°41' W 007°36'0 0.0
2016-Jun-24 20:33N 43°41' W 007°36'0 0.0
2016-Jun-24 19:31N 43°41' W 007°36'0 0.0
2016-Jun-24 18:33N 43°41' W 007°36'0 0.1
2016-Jun-24 17:33N 43°41' W 007°36'0 0.0
2016-Jun-24 16:33N 43°41' W 007°36'7 6.5
2016-Jun-24 15:33N 43°47' W 007°39'9 9.1
2016-Jun-24 14:31N 43°49' W 007°51'7 0.2
2016-Jun-22 22:28N 43°50' W 007°41'9 9.8
2016-Jun-22 21:33N 43°41' W 007°36'1 0.6
2016-Jun-22 20:34N 43°41' W 007°36'0 0.0
2016-Jun-22 19:34N 43°41' W 007°36'0 0.0
2016-Jun-22 18:33N 43°41' W 007°36'0 0.0
2016-Jun-22 17:34N 43°41' W 007°36'0 0.1
2016-Jun-22 16:34N 43°41' W 007°36'3 3.5
2016-Jun-22 15:33N 43°44' W 007°35'1010.0
2016-Jun-22 14:32N 43°54' W 007°30'  

Dump ship's entire track history